sensor_id;sensor_type;location;lat;lon;timestamp;P1;durP1;ratioP1;P2;durP2;ratioP2
18905;SDS011;9585;51.018;4.282;2023-02-04T00:00:07;14.45;;;9.02;;
18905;SDS011;9585;51.018;4.282;2023-02-04T00:02:37;15.20;;;8.02;;
18905;SDS011;9585;51.018;4.282;2023-02-04T00:05:05;14.00;;;8.73;;
18905;SDS011;9585;51.018;4.282;2023-02-04T00:07:34;13.93;;;8.13;;
18905;SDS011;9585;51.018;4.282;2023-02-04T00:10:02;15.73;;;8.52;;
18905;SDS011;9585;51.018;4.282;2023-02-04T00:12:30;13.50;;;7.97;;
18905;SDS011;9585;51.018;4.282;2023-02-04T00:14:57;12.70;;;8.20;;
18905;SDS011;9585;51.018;4.282;2023-02-04T00:17:25;10.13;;;7.78;;
18905;SDS011;9585;51.018;4.282;2023-02-04T00:19:52;13.00;;;8.57;;
18905;SDS011;9585;51.018;4.282;2023-02-04T00:22:19;13.05;;;8.93;;
18905;SDS011;9585;51.018;4.282;2023-02-04T00:24:48;14.20;;;8.68;;
18905;SDS011;9585;51.018;4.282;2023-02-04T00:27:15;11.23;;;7.85;;
18905;SDS011;9585;51.018;4.282;2023-02-04T00:29:42;12.85;;;7.97;;
18905;SDS011;9585;51.018;4.282;2023-02-04T00:32:09;16.25;;;9.25;;
18905;SDS011;9585;51.018;4.282;2023-02-04T00:34:37;10.82;;;8.40;;
18905;SDS011;9585;51.018;4.282;2023-02-04T00:37:04;10.43;;;8.70;;
18905;SDS011;9585;51.018;4.282;2023-02-04T00:39:31;14.50;;;9.10;;
18905;SDS011;9585;51.018;4.282;2023-02-04T00:42:00;13.15;;;8.73;;
18905;SDS011;9585;51.018;4.282;2023-02-04T00:44:27;13.77;;;8.90;;
18905;SDS011;9585;51.018;4.282;2023-02-04T00:46:54;12.75;;;8.95;;
18905;SDS011;9585;51.018;4.282;2023-02-04T00:49:21;10.05;;;8.90;;
18905;SDS011;9585;51.018;4.282;2023-02-04T00:51:51;12.60;;;8.95;;
18905;SDS011;9585;51.018;4.282;2023-02-04T00:54:18;10.18;;;8.05;;
18905;SDS011;9585;51.018;4.282;2023-02-04T00:56:46;9.07;;;7.60;;
18905;SDS011;9585;51.018;4.282;2023-02-04T00:59:14;9.65;;;7.70;;
18905;SDS011;9585;51.018;4.282;2023-02-04T01:01:41;10.25;;;7.68;;
18905;SDS011;9585;51.018;4.282;2023-02-04T01:04:09;9.90;;;7.30;;
18905;SDS011;9585;51.018;4.282;2023-02-04T01:06:36;8.45;;;7.13;;
18905;SDS011;9585;51.018;4.282;2023-02-04T01:09:03;9.98;;;7.32;;
18905;SDS011;9585;51.018;4.282;2023-02-04T01:11:31;11.32;;;8.10;;
18905;SDS011;9585;51.018;4.282;2023-02-04T01:13:58;10.45;;;8.40;;
18905;SDS011;9585;51.018;4.282;2023-02-04T01:16:27;11.98;;;9.18;;
18905;SDS011;9585;51.018;4.282;2023-02-04T01:18:54;14.35;;;9.27;;
18905;SDS011;9585;51.018;4.282;2023-02-04T01:21:22;13.13;;;9.43;;
18905;SDS011;9585;51.018;4.282;2023-02-04T01:23:49;14.88;;;9.05;;
18905;SDS011;9585;51.018;4.282;2023-02-04T01:26:16;16.80;;;9.75;;
18905;SDS011;9585;51.018;4.282;2023-02-04T01:28:44;17.98;;;9.82;;
18905;SDS011;9585;51.018;4.282;2023-02-04T01:31:12;13.95;;;9.13;;
18905;SDS011;9585;51.018;4.282;2023-02-04T01:33:40;15.10;;;9.20;;
18905;SDS011;9585;51.018;4.282;2023-02-04T01:36:08;14.48;;;8.93;;
18905;SDS011;9585;51.018;4.282;2023-02-04T01:38:36;17.30;;;9.50;;
18905;SDS011;9585;51.018;4.282;2023-02-04T01:41:03;15.70;;;8.80;;
18905;SDS011;9585;51.018;4.282;2023-02-04T01:43:32;15.88;;;9.05;;
18905;SDS011;9585;51.018;4.282;2023-02-04T01:45:59;13.70;;;9.10;;
18905;SDS011;9585;51.018;4.282;2023-02-04T01:48:27;17.30;;;10.32;;
18905;SDS011;9585;51.018;4.282;2023-02-04T01:50:59;14.30;;;9.13;;
18905;SDS011;9585;51.018;4.282;2023-02-04T01:53:28;17.38;;;9.75;;
18905;SDS011;9585;51.018;4.282;2023-02-04T01:55:56;16.92;;;10.15;;
18905;SDS011;9585;51.018;4.282;2023-02-04T01:58:23;16.90;;;10.80;;
18905;SDS011;9585;51.018;4.282;2023-02-04T02:00:51;17.52;;;10.15;;
18905;SDS011;9585;51.018;4.282;2023-02-04T02:03:18;17.88;;;10.48;;
18905;SDS011;9585;51.018;4.282;2023-02-04T02:05:46;17.40;;;10.65;;
18905;SDS011;9585;51.018;4.282;2023-02-04T02:08:17;17.80;;;11.40;;
18905;SDS011;9585;51.018;4.282;2023-02-04T02:10:45;19.08;;;11.38;;
18905;SDS011;9585;51.018;4.282;2023-02-04T02:13:14;21.23;;;11.90;;
18905;SDS011;9585;51.018;4.282;2023-02-04T02:15:43;22.10;;;11.50;;
18905;SDS011;9585;51.018;4.282;2023-02-04T02:18:11;19.27;;;11.57;;
18905;SDS011;9585;51.018;4.282;2023-02-04T02:20:38;20.80;;;11.98;;
18905;SDS011;9585;51.018;4.282;2023-02-04T02:23:10;21.35;;;11.95;;
18905;SDS011;9585;51.018;4.282;2023-02-04T02:25:46;18.83;;;11.73;;
18905;SDS011;9585;51.018;4.282;2023-02-04T02:28:14;22.92;;;13.00;;
18905;SDS011;9585;51.018;4.282;2023-02-04T02:30:44;19.80;;;12.15;;
18905;SDS011;9585;51.018;4.282;2023-02-04T02:33:13;18.35;;;12.05;;
18905;SDS011;9585;51.018;4.282;2023-02-04T02:35:43;21.70;;;12.23;;
18905;SDS011;9585;51.018;4.282;2023-02-04T02:38:12;19.55;;;12.00;;
18905;SDS011;9585;51.018;4.282;2023-02-04T02:40:40;15.65;;;10.55;;
18905;SDS011;9585;51.018;4.282;2023-02-04T02:43:10;16.23;;;10.82;;
18905;SDS011;9585;51.018;4.282;2023-02-04T02:45:41;18.48;;;11.23;;
18905;SDS011;9585;51.018;4.282;2023-02-04T02:48:09;16.67;;;11.30;;
18905;SDS011;9585;51.018;4.282;2023-02-04T02:50:37;17.20;;;11.45;;
18905;SDS011;9585;51.018;4.282;2023-02-04T02:53:05;15.27;;;10.00;;
18905;SDS011;9585;51.018;4.282;2023-02-04T02:55:37;14.88;;;10.57;;
18905;SDS011;9585;51.018;4.282;2023-02-04T02:58:05;17.02;;;11.32;;
18905;SDS011;9585;51.018;4.282;2023-02-04T03:00:40;18.05;;;11.02;;
18905;SDS011;9585;51.018;4.282;2023-02-04T03:03:09;18.55;;;12.23;;
18905;SDS011;9585;51.018;4.282;2023-02-04T03:05:40;22.02;;;14.00;;
18905;SDS011;9585;51.018;4.282;2023-02-04T03:08:09;19.05;;;14.45;;
18905;SDS011;9585;51.018;4.282;2023-02-04T03:10:37;19.17;;;14.85;;
18905;SDS011;9585;51.018;4.282;2023-02-04T03:13:04;21.55;;;14.75;;
18905;SDS011;9585;51.018;4.282;2023-02-04T03:15:33;20.65;;;14.30;;
18905;SDS011;9585;51.018;4.282;2023-02-04T03:18:01;19.70;;;15.32;;
18905;SDS011;9585;51.018;4.282;2023-02-04T03:20:29;19.58;;;13.65;;
18905;SDS011;9585;51.018;4.282;2023-02-04T03:22:58;20.92;;;14.80;;
18905;SDS011;9585;51.018;4.282;2023-02-04T03:25:25;23.60;;;15.68;;
18905;SDS011;9585;51.018;4.282;2023-02-04T03:27:53;21.55;;;15.10;;
18905;SDS011;9585;51.018;4.282;2023-02-04T03:30:21;21.63;;;15.25;;
18905;SDS011;9585;51.018;4.282;2023-02-04T03:33:02;24.85;;;16.30;;
18905;SDS011;9585;51.018;4.282;2023-02-04T03:35:29;25.63;;;17.25;;
18905;SDS011;9585;51.018;4.282;2023-02-04T03:37:57;25.50;;;17.25;;
18905;SDS011;9585;51.018;4.282;2023-02-04T03:40:24;24.23;;;17.45;;
18905;SDS011;9585;51.018;4.282;2023-02-04T03:42:51;26.80;;;19.58;;
18905;SDS011;9585;51.018;4.282;2023-02-04T03:45:18;26.23;;;17.95;;
18905;SDS011;9585;51.018;4.282;2023-02-04T03:48:01;22.73;;;15.60;;
18905;SDS011;9585;51.018;4.282;2023-02-04T03:50:28;25.95;;;16.30;;
18905;SDS011;9585;51.018;4.282;2023-02-04T03:52:55;20.38;;;15.32;;
18905;SDS011;9585;51.018;4.282;2023-02-04T03:55:22;25.23;;;17.65;;
18905;SDS011;9585;51.018;4.282;2023-02-04T03:57:51;23.50;;;16.40;;
18905;SDS011;9585;51.018;4.282;2023-02-04T04:00:18;19.85;;;14.10;;
18905;SDS011;9585;51.018;4.282;2023-02-04T04:02:46;29.10;;;18.05;;
18905;SDS011;9585;51.018;4.282;2023-02-04T04:05:14;28.20;;;17.13;;
18905;SDS011;9585;51.018;4.282;2023-02-04T04:07:42;22.45;;;15.43;;
18905;SDS011;9585;51.018;4.282;2023-02-04T04:10:09;18.05;;;12.43;;
18905;SDS011;9585;51.018;4.282;2023-02-04T04:12:37;20.20;;;12.60;;
18905;SDS011;9585;51.018;4.282;2023-02-04T04:15:05;18.67;;;12.02;;
18905;SDS011;9585;51.018;4.282;2023-02-04T04:17:32;19.33;;;12.95;;
18905;SDS011;9585;51.018;4.282;2023-02-04T04:20:00;20.48;;;12.80;;
18905;SDS011;9585;51.018;4.282;2023-02-04T04:22:28;16.80;;;11.48;;
18905;SDS011;9585;51.018;4.282;2023-02-04T04:24:56;19.02;;;11.93;;
18905;SDS011;9585;51.018;4.282;2023-02-04T04:27:23;19.10;;;13.32;;
18905;SDS011;9585;51.018;4.282;2023-02-04T04:29:51;19.08;;;12.65;;
18905;SDS011;9585;51.018;4.282;2023-02-04T04:32:18;20.73;;;12.52;;
18905;SDS011;9585;51.018;4.282;2023-02-04T04:34:45;20.23;;;13.32;;
18905;SDS011;9585;51.018;4.282;2023-02-04T04:37:12;20.35;;;13.45;;
18905;SDS011;9585;51.018;4.282;2023-02-04T04:39:41;20.00;;;12.75;;
18905;SDS011;9585;51.018;4.282;2023-02-04T04:42:09;22.17;;;14.50;;
18905;SDS011;9585;51.018;4.282;2023-02-04T04:44:36;20.45;;;14.20;;
18905;SDS011;9585;51.018;4.282;2023-02-04T04:47:03;22.33;;;14.85;;
18905;SDS011;9585;51.018;4.282;2023-02-04T04:49:30;24.15;;;14.73;;
18905;SDS011;9585;51.018;4.282;2023-02-04T04:51:58;19.38;;;13.20;;
18905;SDS011;9585;51.018;4.282;2023-02-04T04:54:25;21.60;;;14.10;;
18905;SDS011;9585;51.018;4.282;2023-02-04T04:56:54;22.92;;;14.27;;
18905;SDS011;9585;51.018;4.282;2023-02-04T04:59:21;22.27;;;13.60;;
18905;SDS011;9585;51.018;4.282;2023-02-04T05:01:48;21.38;;;14.35;;
18905;SDS011;9585;51.018;4.282;2023-02-04T05:04:16;21.10;;;14.38;;
18905;SDS011;9585;51.018;4.282;2023-02-04T05:06:43;20.10;;;13.38;;
18905;SDS011;9585;51.018;4.282;2023-02-04T05:09:10;20.77;;;14.15;;
18905;SDS011;9585;51.018;4.282;2023-02-04T05:11:39;26.00;;;15.70;;
18905;SDS011;9585;51.018;4.282;2023-02-04T05:14:08;19.67;;;13.25;;
18905;SDS011;9585;51.018;4.282;2023-02-04T05:16:35;25.92;;;16.40;;
18905;SDS011;9585;51.018;4.282;2023-02-04T05:19:02;23.38;;;14.10;;
18905;SDS011;9585;51.018;4.282;2023-02-04T05:21:29;20.85;;;14.38;;
18905;SDS011;9585;51.018;4.282;2023-02-04T05:23:57;21.05;;;13.95;;
18905;SDS011;9585;51.018;4.282;2023-02-04T05:26:24;20.90;;;13.10;;
18905;SDS011;9585;51.018;4.282;2023-02-04T05:28:52;20.90;;;14.38;;
18905;SDS011;9585;51.018;4.282;2023-02-04T05:31:20;19.20;;;13.40;;
18905;SDS011;9585;51.018;4.282;2023-02-04T05:33:48;21.42;;;14.10;;
18905;SDS011;9585;51.018;4.282;2023-02-04T05:36:15;23.45;;;15.27;;
18905;SDS011;9585;51.018;4.282;2023-02-04T05:38:43;21.52;;;13.77;;
18905;SDS011;9585;51.018;4.282;2023-02-04T05:41:10;24.17;;;14.90;;
18905;SDS011;9585;51.018;4.282;2023-02-04T05:43:37;23.83;;;14.77;;
18905;SDS011;9585;51.018;4.282;2023-02-04T05:46:05;24.52;;;15.27;;
18905;SDS011;9585;51.018;4.282;2023-02-04T05:48:33;22.65;;;14.63;;
18905;SDS011;9585;51.018;4.282;2023-02-04T05:51:00;20.10;;;13.43;;
18905;SDS011;9585;51.018;4.282;2023-02-04T05:53:28;22.67;;;14.75;;
18905;SDS011;9585;51.018;4.282;2023-02-04T05:55:55;19.13;;;12.65;;
18905;SDS011;9585;51.018;4.282;2023-02-04T05:58:22;22.38;;;14.10;;
18905;SDS011;9585;51.018;4.282;2023-02-04T06:00:49;19.27;;;12.07;;
18905;SDS011;9585;51.018;4.282;2023-02-04T06:03:16;20.83;;;14.23;;
18905;SDS011;9585;51.018;4.282;2023-02-04T06:05:47;22.75;;;14.88;;
18905;SDS011;9585;51.018;4.282;2023-02-04T06:08:14;21.13;;;13.98;;
18905;SDS011;9585;51.018;4.282;2023-02-04T06:10:41;19.30;;;12.50;;
18905;SDS011;9585;51.018;4.282;2023-02-04T06:13:08;22.38;;;14.07;;
18905;SDS011;9585;51.018;4.282;2023-02-04T06:15:36;20.15;;;13.68;;
18905;SDS011;9585;51.018;4.282;2023-02-04T06:18:03;24.05;;;14.93;;
18905;SDS011;9585;51.018;4.282;2023-02-04T06:20:30;20.38;;;13.70;;
18905;SDS011;9585;51.018;4.282;2023-02-04T06:22:59;22.27;;;13.50;;
18905;SDS011;9585;51.018;4.282;2023-02-04T06:25:26;23.73;;;15.65;;
18905;SDS011;9585;51.018;4.282;2023-02-04T06:27:53;20.40;;;14.32;;
18905;SDS011;9585;51.018;4.282;2023-02-04T06:30:21;21.52;;;14.35;;
18905;SDS011;9585;51.018;4.282;2023-02-04T06:32:48;20.58;;;13.60;;
18905;SDS011;9585;51.018;4.282;2023-02-04T06:35:15;18.88;;;13.55;;
18905;SDS011;9585;51.018;4.282;2023-02-04T06:37:42;19.00;;;12.93;;
18905;SDS011;9585;51.018;4.282;2023-02-04T06:40:12;16.77;;;11.07;;
18905;SDS011;9585;51.018;4.282;2023-02-04T06:42:39;20.70;;;13.32;;
18905;SDS011;9585;51.018;4.282;2023-02-04T06:45:06;19.88;;;13.20;;
18905;SDS011;9585;51.018;4.282;2023-02-04T06:47:34;19.27;;;12.57;;
18905;SDS011;9585;51.018;4.282;2023-02-04T06:50:01;18.08;;;11.95;;
18905;SDS011;9585;51.018;4.282;2023-02-04T06:52:28;21.30;;;13.15;;
18905;SDS011;9585;51.018;4.282;2023-02-04T06:54:56;22.17;;;12.85;;
18905;SDS011;9585;51.018;4.282;2023-02-04T06:57:24;18.02;;;12.15;;
18905;SDS011;9585;51.018;4.282;2023-02-04T06:59:52;18.92;;;12.57;;
18905;SDS011;9585;51.018;4.282;2023-02-04T07:02:19;19.60;;;12.68;;
18905;SDS011;9585;51.018;4.282;2023-02-04T07:04:46;20.30;;;13.82;;
18905;SDS011;9585;51.018;4.282;2023-02-04T07:07:13;21.40;;;13.75;;
18905;SDS011;9585;51.018;4.282;2023-02-04T07:09:41;19.20;;;12.20;;
18905;SDS011;9585;51.018;4.282;2023-02-04T07:12:08;21.73;;;13.70;;
18905;SDS011;9585;51.018;4.282;2023-02-04T07:14:37;17.95;;;11.75;;
18905;SDS011;9585;51.018;4.282;2023-02-04T07:17:04;21.02;;;13.20;;
18905;SDS011;9585;51.018;4.282;2023-02-04T07:19:31;21.23;;;14.23;;
18905;SDS011;9585;51.018;4.282;2023-02-04T07:21:59;18.65;;;11.73;;
18905;SDS011;9585;51.018;4.282;2023-02-04T07:24:26;18.67;;;12.68;;
18905;SDS011;9585;51.018;4.282;2023-02-04T07:26:54;17.75;;;11.80;;
18905;SDS011;9585;51.018;4.282;2023-02-04T07:29:21;18.38;;;12.38;;
18905;SDS011;9585;51.018;4.282;2023-02-04T07:31:50;19.13;;;12.23;;
18905;SDS011;9585;51.018;4.282;2023-02-04T07:34:18;18.20;;;11.82;;
18905;SDS011;9585;51.018;4.282;2023-02-04T07:36:46;18.80;;;13.20;;
18905;SDS011;9585;51.018;4.282;2023-02-04T07:39:13;20.45;;;12.70;;
18905;SDS011;9585;51.018;4.282;2023-02-04T07:41:41;18.25;;;11.77;;
18905;SDS011;9585;51.018;4.282;2023-02-04T07:44:08;16.67;;;11.05;;
18905;SDS011;9585;51.018;4.282;2023-02-04T07:46:35;20.63;;;12.93;;
18905;SDS011;9585;51.018;4.282;2023-02-04T07:49:04;20.33;;;12.88;;
18905;SDS011;9585;51.018;4.282;2023-02-04T07:51:32;17.23;;;11.63;;
18905;SDS011;9585;51.018;4.282;2023-02-04T07:53:59;17.65;;;11.65;;
18905;SDS011;9585;51.018;4.282;2023-02-04T07:56:26;15.40;;;10.55;;
18905;SDS011;9585;51.018;4.282;2023-02-04T07:58:54;18.52;;;12.13;;
18905;SDS011;9585;51.018;4.282;2023-02-04T08:01:21;19.45;;;12.95;;
18905;SDS011;9585;51.018;4.282;2023-02-04T08:03:48;21.42;;;13.40;;
18905;SDS011;9585;51.018;4.282;2023-02-04T08:06:18;19.52;;;12.50;;
18905;SDS011;9585;51.018;4.282;2023-02-04T08:08:46;21.98;;;13.75;;
18905;SDS011;9585;51.018;4.282;2023-02-04T08:11:14;18.00;;;11.93;;
18905;SDS011;9585;51.018;4.282;2023-02-04T08:13:41;19.23;;;11.93;;
18905;SDS011;9585;51.018;4.282;2023-02-04T08:16:09;17.75;;;11.07;;
18905;SDS011;9585;51.018;4.282;2023-02-04T08:18:36;15.50;;;10.43;;
18905;SDS011;9585;51.018;4.282;2023-02-04T08:21:04;15.77;;;10.35;;
18905;SDS011;9585;51.018;4.282;2023-02-04T08:23:33;15.98;;;9.70;;
18905;SDS011;9585;51.018;4.282;2023-02-04T08:26:05;18.23;;;11.85;;
18905;SDS011;9585;51.018;4.282;2023-02-04T08:28:34;17.30;;;11.18;;
18905;SDS011;9585;51.018;4.282;2023-02-04T08:31:01;14.93;;;10.40;;
18905;SDS011;9585;51.018;4.282;2023-02-04T08:33:28;18.00;;;10.77;;
18905;SDS011;9585;51.018;4.282;2023-02-04T08:35:56;18.45;;;10.80;;
18905;SDS011;9585;51.018;4.282;2023-02-04T08:38:23;19.08;;;12.07;;
18905;SDS011;9585;51.018;4.282;2023-02-04T08:40:52;16.38;;;10.63;;
18905;SDS011;9585;51.018;4.282;2023-02-04T08:43:19;16.27;;;10.15;;
18905;SDS011;9585;51.018;4.282;2023-02-04T08:45:46;14.35;;;9.13;;
18905;SDS011;9585;51.018;4.282;2023-02-04T08:48:13;11.25;;;7.72;;
18905;SDS011;9585;51.018;4.282;2023-02-04T08:50:40;15.45;;;10.35;;
18905;SDS011;9585;51.018;4.282;2023-02-04T08:53:07;17.88;;;10.48;;
18905;SDS011;9585;51.018;4.282;2023-02-04T08:55:35;14.45;;;9.43;;
18905;SDS011;9585;51.018;4.282;2023-02-04T08:58:04;13.88;;;8.75;;
18905;SDS011;9585;51.018;4.282;2023-02-04T09:00:31;13.23;;;8.85;;
18905;SDS011;9585;51.018;4.282;2023-02-04T09:02:58;13.13;;;8.98;;
18905;SDS011;9585;51.018;4.282;2023-02-04T09:05:26;13.32;;;9.25;;
18905;SDS011;9585;51.018;4.282;2023-02-04T09:07:53;16.30;;;9.75;;
18905;SDS011;9585;51.018;4.282;2023-02-04T09:10:21;11.60;;;8.50;;
18905;SDS011;9585;51.018;4.282;2023-02-04T09:12:48;13.50;;;8.68;;
18905;SDS011;9585;51.018;4.282;2023-02-04T09:15:21;13.25;;;8.30;;
18905;SDS011;9585;51.018;4.282;2023-02-04T09:17:52;11.60;;;8.05;;
18905;SDS011;9585;51.018;4.282;2023-02-04T09:20:25;10.95;;;7.88;;
18905;SDS011;9585;51.018;4.282;2023-02-04T09:22:53;11.25;;;7.43;;
18905;SDS011;9585;51.018;4.282;2023-02-04T09:25:21;11.25;;;8.40;;
18905;SDS011;9585;51.018;4.282;2023-02-04T09:27:48;11.02;;;7.90;;
18905;SDS011;9585;51.018;4.282;2023-02-04T09:30:15;12.25;;;8.23;;
18905;SDS011;9585;51.018;4.282;2023-02-04T09:32:44;10.73;;;7.40;;
18905;SDS011;9585;51.018;4.282;2023-02-04T09:35:12;10.70;;;7.63;;
18905;SDS011;9585;51.018;4.282;2023-02-04T09:37:39;10.32;;;7.65;;
18905;SDS011;9585;51.018;4.282;2023-02-04T09:40:08;10.50;;;7.45;;
18905;SDS011;9585;51.018;4.282;2023-02-04T09:42:39;9.88;;;7.78;;
18905;SDS011;9585;51.018;4.282;2023-02-04T09:45:08;10.50;;;7.97;;
18905;SDS011;9585;51.018;4.282;2023-02-04T09:47:41;9.38;;;6.65;;
18905;SDS011;9585;51.018;4.282;2023-02-04T09:50:11;7.95;;;6.43;;
18905;SDS011;9585;51.018;4.282;2023-02-04T09:52:40;10.73;;;7.72;;
18905;SDS011;9585;51.018;4.282;2023-02-04T09:55:11;10.57;;;8.10;;
18905;SDS011;9585;51.018;4.282;2023-02-04T09:57:39;8.07;;;6.78;;
18905;SDS011;9585;51.018;4.282;2023-02-04T10:00:09;7.18;;;6.00;;
18905;SDS011;9585;51.018;4.282;2023-02-04T10:02:41;6.38;;;5.63;;
18905;SDS011;9585;51.018;4.282;2023-02-04T10:05:13;8.38;;;7.00;;
18905;SDS011;9585;51.018;4.282;2023-02-04T10:07:42;6.90;;;5.90;;
18905;SDS011;9585;51.018;4.282;2023-02-04T10:12:42;8.32;;;5.75;;
18905;SDS011;9585;51.018;4.282;2023-02-04T10:15:11;7.45;;;6.15;;
18905;SDS011;9585;51.018;4.282;2023-02-04T10:17:39;6.53;;;5.22;;
18905;SDS011;9585;51.018;4.282;2023-02-04T10:20:13;6.72;;;5.68;;
18905;SDS011;9585;51.018;4.282;2023-02-04T10:22:41;7.22;;;5.70;;
18905;SDS011;9585;51.018;4.282;2023-02-04T10:25:12;6.47;;;5.53;;
18905;SDS011;9585;51.018;4.282;2023-02-04T10:27:46;9.02;;;6.30;;
18905;SDS011;9585;51.018;4.282;2023-02-04T10:30:18;7.28;;;6.57;;
18905;SDS011;9585;51.018;4.282;2023-02-04T10:32:47;19.02;;;13.88;;
18905;SDS011;9585;51.018;4.282;2023-02-04T10:35:17;8.35;;;6.80;;
18905;SDS011;9585;51.018;4.282;2023-02-04T10:37:45;6.20;;;5.60;;
18905;SDS011;9585;51.018;4.282;2023-02-04T10:40:24;6.25;;;5.07;;
18905;SDS011;9585;51.018;4.282;2023-02-04T10:42:53;6.65;;;5.15;;
18905;SDS011;9585;51.018;4.282;2023-02-04T10:45:21;5.45;;;4.93;;
18905;SDS011;9585;51.018;4.282;2023-02-04T10:47:49;5.88;;;5.20;;
18905;SDS011;9585;51.018;4.282;2023-02-04T10:50:20;5.35;;;4.85;;
18905;SDS011;9585;51.018;4.282;2023-02-04T10:52:50;5.65;;;4.95;;
18905;SDS011;9585;51.018;4.282;2023-02-04T10:55:20;4.38;;;3.88;;
18905;SDS011;9585;51.018;4.282;2023-02-04T10:57:49;5.30;;;4.47;;
18905;SDS011;9585;51.018;4.282;2023-02-04T11:00:18;5.55;;;4.78;;
18905;SDS011;9585;51.018;4.282;2023-02-04T11:02:48;5.13;;;4.13;;
18905;SDS011;9585;51.018;4.282;2023-02-04T11:05:21;5.20;;;4.55;;
18905;SDS011;9585;51.018;4.282;2023-02-04T11:07:50;5.15;;;4.57;;
18905;SDS011;9585;51.018;4.282;2023-02-04T11:10:18;5.00;;;4.47;;
18905;SDS011;9585;51.018;4.282;2023-02-04T11:12:58;5.30;;;4.75;;
18905;SDS011;9585;51.018;4.282;2023-02-04T11:15:37;5.63;;;5.00;;
18905;SDS011;9585;51.018;4.282;2023-02-04T11:18:07;5.57;;;5.07;;
18905;SDS011;9585;51.018;4.282;2023-02-04T11:20:39;8.00;;;6.85;;
18905;SDS011;9585;51.018;4.282;2023-02-04T11:23:13;7.10;;;6.35;;
18905;SDS011;9585;51.018;4.282;2023-02-04T11:26:09;8.15;;;6.75;;
18905;SDS011;9585;51.018;4.282;2023-02-04T11:28:43;7.28;;;6.45;;
18905;SDS011;9585;51.018;4.282;2023-02-04T11:31:13;9.00;;;7.57;;
18905;SDS011;9585;51.018;4.282;2023-02-04T11:34:01;13.45;;;9.18;;
18905;SDS011;9585;51.018;4.282;2023-02-04T11:36:37;14.65;;;9.77;;
18905;SDS011;9585;51.018;4.282;2023-02-04T11:39:35;14.50;;;9.80;;
18905;SDS011;9585;51.018;4.282;2023-02-04T11:42:03;15.18;;;9.90;;
18905;SDS011;9585;51.018;4.282;2023-02-04T11:44:31;17.25;;;11.02;;
18905;SDS011;9585;51.018;4.282;2023-02-04T11:46:59;17.65;;;11.52;;
18905;SDS011;9585;51.018;4.282;2023-02-04T11:49:34;17.50;;;11.23;;
18905;SDS011;9585;51.018;4.282;2023-02-04T11:52:04;18.60;;;12.05;;
18905;SDS011;9585;51.018;4.282;2023-02-04T11:54:33;18.42;;;11.70;;
18905;SDS011;9585;51.018;4.282;2023-02-04T11:57:01;17.65;;;11.57;;
18905;SDS011;9585;51.018;4.282;2023-02-04T11:59:29;18.67;;;11.00;;
18905;SDS011;9585;51.018;4.282;2023-02-04T12:02:04;19.92;;;12.73;;
18905;SDS011;9585;51.018;4.282;2023-02-04T12:04:33;17.00;;;11.40;;
18905;SDS011;9585;51.018;4.282;2023-02-04T12:07:01;16.25;;;12.20;;
18905;SDS011;9585;51.018;4.282;2023-02-04T12:09:30;14.50;;;11.30;;
18905;SDS011;9585;51.018;4.282;2023-02-04T12:11:58;17.15;;;12.48;;
18905;SDS011;9585;51.018;4.282;2023-02-04T12:14:27;17.98;;;13.10;;
18905;SDS011;9585;51.018;4.282;2023-02-04T12:16:56;21.58;;;13.93;;
18905;SDS011;9585;51.018;4.282;2023-02-04T12:19:24;17.45;;;12.85;;
18905;SDS011;9585;51.018;4.282;2023-02-04T12:21:51;18.15;;;14.18;;
18905;SDS011;9585;51.018;4.282;2023-02-04T12:24:20;18.60;;;13.55;;
18905;SDS011;9585;51.018;4.282;2023-02-04T12:26:47;18.75;;;13.98;;
18905;SDS011;9585;51.018;4.282;2023-02-04T12:29:15;18.33;;;12.57;;
18905;SDS011;9585;51.018;4.282;2023-02-04T12:31:43;18.60;;;12.40;;
18905;SDS011;9585;51.018;4.282;2023-02-04T12:34:10;16.05;;;11.75;;
18905;SDS011;9585;51.018;4.282;2023-02-04T12:36:37;15.70;;;11.48;;
18905;SDS011;9585;51.018;4.282;2023-02-04T12:39:04;17.58;;;13.13;;
18905;SDS011;9585;51.018;4.282;2023-02-04T12:41:33;18.80;;;13.00;;
18905;SDS011;9585;51.018;4.282;2023-02-04T12:44:00;20.17;;;12.82;;
18905;SDS011;9585;51.018;4.282;2023-02-04T12:46:27;19.52;;;13.10;;
18905;SDS011;9585;51.018;4.282;2023-02-04T12:48:54;19.58;;;13.20;;
18905;SDS011;9585;51.018;4.282;2023-02-04T12:51:22;17.65;;;12.57;;
18905;SDS011;9585;51.018;4.282;2023-02-04T12:53:49;18.10;;;12.90;;
18905;SDS011;9585;51.018;4.282;2023-02-04T12:56:17;17.83;;;12.27;;
18905;SDS011;9585;51.018;4.282;2023-02-04T12:58:46;17.92;;;12.73;;
18905;SDS011;9585;51.018;4.282;2023-02-04T13:01:13;16.15;;;12.27;;
18905;SDS011;9585;51.018;4.282;2023-02-04T13:03:40;18.10;;;13.63;;
18905;SDS011;9585;51.018;4.282;2023-02-04T13:06:07;17.38;;;12.98;;
18905;SDS011;9585;51.018;4.282;2023-02-04T13:08:35;19.92;;;13.52;;
18905;SDS011;9585;51.018;4.282;2023-02-04T13:11:02;18.33;;;13.98;;
18905;SDS011;9585;51.018;4.282;2023-02-04T13:13:29;20.20;;;13.73;;
18905;SDS011;9585;51.018;4.282;2023-02-04T13:15:58;18.58;;;13.90;;
18905;SDS011;9585;51.018;4.282;2023-02-04T13:18:26;18.80;;;13.25;;
18905;SDS011;9585;51.018;4.282;2023-02-04T13:20:53;15.43;;;12.77;;
18905;SDS011;9585;51.018;4.282;2023-02-04T13:23:20;15.93;;;12.15;;
18905;SDS011;9585;51.018;4.282;2023-02-04T13:25:47;14.48;;;11.57;;
18905;SDS011;9585;51.018;4.282;2023-02-04T13:28:15;14.40;;;11.20;;
18905;SDS011;9585;51.018;4.282;2023-02-04T13:30:42;15.98;;;11.23;;
18905;SDS011;9585;51.018;4.282;2023-02-04T13:33:11;16.00;;;11.95;;
18905;SDS011;9585;51.018;4.282;2023-02-04T13:35:38;15.48;;;11.10;;
18905;SDS011;9585;51.018;4.282;2023-02-04T13:38:05;15.25;;;11.60;;
18905;SDS011;9585;51.018;4.282;2023-02-04T13:40:33;16.48;;;11.50;;
18905;SDS011;9585;51.018;4.282;2023-02-04T13:43:00;17.13;;;11.57;;
18905;SDS011;9585;51.018;4.282;2023-02-04T13:45:27;17.08;;;11.05;;
18905;SDS011;9585;51.018;4.282;2023-02-04T13:47:55;14.18;;;10.38;;
18905;SDS011;9585;51.018;4.282;2023-02-04T13:50:23;13.07;;;10.65;;
18905;SDS011;9585;51.018;4.282;2023-02-04T13:52:51;15.73;;;11.07;;
18905;SDS011;9585;51.018;4.282;2023-02-04T13:55:19;13.57;;;10.52;;
18905;SDS011;9585;51.018;4.282;2023-02-04T13:57:46;12.82;;;9.50;;
18905;SDS011;9585;51.018;4.282;2023-02-04T14:00:14;13.85;;;8.98;;
18905;SDS011;9585;51.018;4.282;2023-02-04T14:02:41;11.88;;;8.15;;
18905;SDS011;9585;51.018;4.282;2023-02-04T14:05:08;9.32;;;7.50;;
18905;SDS011;9585;51.018;4.282;2023-02-04T14:07:37;11.77;;;7.20;;
18905;SDS011;9585;51.018;4.282;2023-02-04T14:10:05;16.23;;;7.55;;
18905;SDS011;9585;51.018;4.282;2023-02-04T14:12:32;10.65;;;6.85;;
18905;SDS011;9585;51.018;4.282;2023-02-04T14:15:00;10.02;;;7.15;;
18905;SDS011;9585;51.018;4.282;2023-02-04T14:17:27;11.50;;;7.30;;
18905;SDS011;9585;51.018;4.282;2023-02-04T14:19:54;11.60;;;7.25;;
18905;SDS011;9585;51.018;4.282;2023-02-04T14:22:21;13.10;;;7.13;;
18905;SDS011;9585;51.018;4.282;2023-02-04T14:24:50;13.07;;;7.03;;
18905;SDS011;9585;51.018;4.282;2023-02-04T14:27:17;9.55;;;6.43;;
18905;SDS011;9585;51.018;4.282;2023-02-04T14:29:45;11.15;;;6.75;;
18905;SDS011;9585;51.018;4.282;2023-02-04T14:32:12;8.88;;;6.72;;
18905;SDS011;9585;51.018;4.282;2023-02-04T14:34:39;11.18;;;7.22;;
18905;SDS011;9585;51.018;4.282;2023-02-04T14:37:07;9.52;;;7.07;;
18905;SDS011;9585;51.018;4.282;2023-02-04T14:39:34;10.88;;;8.00;;
18905;SDS011;9585;51.018;4.282;2023-02-04T14:42:03;11.10;;;7.75;;
18905;SDS011;9585;51.018;4.282;2023-02-04T14:44:30;11.02;;;7.75;;
18905;SDS011;9585;51.018;4.282;2023-02-04T14:46:57;14.82;;;9.35;;
18905;SDS011;9585;51.018;4.282;2023-02-04T14:49:25;13.10;;;8.48;;